Airports Norway Namsos Høknesøra Airport

Namsos Høknesøra Airport (ENNM / OSY)

Facts about Namsos Høknesøra Airport

Name Namsos Høknesøra Airport
City Namsos
Country Norway
ICAO code ENNM
IATA code OSY
Elevation 2.1336 meters (7 feet)

Weather

METAR

Metar data retrieved Saturday, 20 July 2024 at 00:55 UTC (11 minutes ago)

ENNM 200020Z AUTO 00000KT 9999 FEW017/// 10/09 Q1017

Live traffic

Navigraph Charts (account required)